createdAt,value
2022-09-09T00:01:58.948Z,1.95
2022-09-09T00:04:26.566Z,1.95
2022-09-09T00:06:56.566Z,1.95
2022-09-09T00:09:27.024Z,2.28
2022-09-09T00:11:58.002Z,2.17
2022-09-09T00:14:29.590Z,2.00
2022-09-09T00:17:03.568Z,2.30
2022-09-09T00:19:36.751Z,1.90
2022-09-09T00:22:06.882Z,2.30
2022-09-09T00:24:37.437Z,2.33
2022-09-09T00:27:15.619Z,2.30
2022-09-09T00:29:42.897Z,2.25
2022-09-09T00:32:18.619Z,2.40
2022-09-09T00:35:03.698Z,2.78
2022-09-09T00:37:33.148Z,3.60
2022-09-09T00:40:01.945Z,2.55
2022-09-09T00:42:38.611Z,2.40
2022-09-09T00:45:31.644Z,3.10
2022-09-09T00:48:00.249Z,2.03
2022-09-09T00:50:33.940Z,2.03
2022-09-09T00:53:12.062Z,2.40
2022-09-09T00:55:41.488Z,2.60
2022-09-09T00:58:09.468Z,2.20
2022-09-09T01:00:47.326Z,2.47
2022-09-09T01:03:25.158Z,2.35
2022-09-09T01:06:06.226Z,2.10
2022-09-09T01:08:52.590Z,2.42
2022-09-09T01:11:27.926Z,2.03
2022-09-09T01:14:12.471Z,2.20
2022-09-09T01:16:39.963Z,2.50
2022-09-09T01:19:09.359Z,2.60
2022-09-09T01:21:55.125Z,2.70
2022-09-09T01:24:27.518Z,3.13
2022-09-09T01:26:58.584Z,3.03
2022-09-09T01:29:26.479Z,3.33
2022-09-09T01:32:01.041Z,2.65
2022-09-09T01:34:34.936Z,3.03
2022-09-09T01:37:12.205Z,2.55
2022-09-09T01:39:40.538Z,2.22
2022-09-09T01:42:09.646Z,2.50
2022-09-09T01:44:37.660Z,2.30
2022-09-09T01:47:05.490Z,2.40
2022-09-09T01:49:33.805Z,2.42
2022-09-09T01:52:01.438Z,2.72
2022-09-09T01:54:30.806Z,2.45
2022-09-09T01:57:07.260Z,2.33
2022-09-09T01:59:53.196Z,2.75
2022-09-09T02:02:20.663Z,2.88
2022-09-09T02:04:52.319Z,2.50
2022-09-09T02:07:19.691Z,2.53
2022-09-09T02:09:49.083Z,2.17
2022-09-09T02:12:18.778Z,2.85
2022-09-09T02:14:50.564Z,2.30
2022-09-09T02:17:21.609Z,2.55
2022-09-09T02:19:51.146Z,2.55
2022-09-09T02:22:20.876Z,2.08
2022-09-09T02:24:49.115Z,2.30
2022-09-09T02:27:17.678Z,2.35
2022-09-09T02:29:48.637Z,2.30
2022-09-09T02:32:17.848Z,2.38
2022-09-09T02:34:47.116Z,2.38
2022-09-09T02:37:15.615Z,2.45
2022-09-09T02:39:43.079Z,4.28
2022-09-09T02:42:10.707Z,3.15
2022-09-09T02:44:38.298Z,2.40
2022-09-09T02:47:24.607Z,2.58
2022-09-09T02:49:51.928Z,2.40
2022-09-09T02:52:28.285Z,3.15
2022-09-09T02:55:00.138Z,2.90
2022-09-09T02:57:31.332Z,3.22
2022-09-09T02:59:59.454Z,2.60
2022-09-09T03:02:27.256Z,2.55
2022-09-09T03:04:54.574Z,2.75
2022-09-09T03:07:22.136Z,2.15
2022-09-09T03:09:50.061Z,2.53
2022-09-09T03:12:17.689Z,2.20
2022-09-09T03:14:47.021Z,2.47
2022-09-09T03:17:14.464Z,2.83
2022-09-09T03:19:42.283Z,2.33
2022-09-09T03:22:11.540Z,2.20
2022-09-09T03:24:38.864Z,2.58
2022-09-09T03:27:06.373Z,2.53
2022-09-09T03:29:34.075Z,2.78
2022-09-09T03:32:01.457Z,2.33
2022-09-09T03:34:28.735Z,2.75
2022-09-09T03:36:56.838Z,2.20
2022-09-09T03:39:24.296Z,2.20
2022-09-09T03:41:51.801Z,2.50
2022-09-09T03:44:19.116Z,2.78
2022-09-09T03:46:46.954Z,2.78
2022-09-09T03:49:14.411Z,2.50
2022-09-09T03:51:41.683Z,2.58
2022-09-09T03:54:11.243Z,2.90
2022-09-09T03:56:38.730Z,3.00
2022-09-09T03:59:06.086Z,2.83
2022-09-09T04:01:33.501Z,3.17
2022-09-09T04:04:01.174Z,2.67
2022-09-09T04:06:29.028Z,3.15
2022-09-09T04:08:56.713Z,2.80
2022-09-09T04:11:24.240Z,2.72
2022-09-09T04:13:52.114Z,3.05
2022-09-09T04:16:19.896Z,2.78
2022-09-09T04:18:47.241Z,3.10
2022-09-09T04:21:14.851Z,3.20
2022-09-09T04:23:42.190Z,3.03
2022-09-09T04:26:10.109Z,3.10
2022-09-09T04:28:38.637Z,3.75
2022-09-09T04:31:10.652Z,3.00
2022-09-09T04:33:40.506Z,3.08
2022-09-09T04:36:08.512Z,2.97
2022-09-09T04:38:35.980Z,3.05
2022-09-09T04:41:03.276Z,3.40
2022-09-09T04:43:32.021Z,3.42
2022-09-09T04:46:02.587Z,3.85
2022-09-09T04:48:32.847Z,3.00
2022-09-09T04:51:01.124Z,3.20
2022-09-09T04:53:28.598Z,3.40
2022-09-09T04:56:03.533Z,3.42
2022-09-09T04:58:30.823Z,3.53
2022-09-09T05:01:04.840Z,3.00
2022-09-09T05:03:32.193Z,2.75
2022-09-09T05:06:07.139Z,2.60
2022-09-09T05:08:34.481Z,2.92
2022-09-09T05:11:01.819Z,2.65
2022-09-09T05:13:29.205Z,2.63
2022-09-09T05:15:57.028Z,2.50
2022-09-09T05:18:24.388Z,2.67
2022-09-09T05:20:52.156Z,2.47
2022-09-09T05:23:19.512Z,2.83
2022-09-09T05:25:56.334Z,2.78
2022-09-09T05:28:23.736Z,2.53
2022-09-09T05:31:01.799Z,3.15
2022-09-09T05:33:29.413Z,2.75
2022-09-09T05:36:01.040Z,2.67
2022-09-09T05:38:28.926Z,2.95
2022-09-09T05:40:58.032Z,2.90
2022-09-09T05:43:26.319Z,2.20
2022-09-09T05:46:07.333Z,3.45
2022-09-09T05:48:35.537Z,3.00
2022-09-09T05:51:03.688Z,2.47
2022-09-09T05:53:35.245Z,2.58
2022-09-09T05:56:12.038Z,2.83
2022-09-09T05:58:39.760Z,2.55
2022-09-09T06:01:08.538Z,2.65
2022-09-09T06:03:36.896Z,3.20
2022-09-09T06:06:08.965Z,2.65
2022-09-09T06:08:40.060Z,3.33
2022-09-09T06:11:08.543Z,2.75
2022-09-09T06:13:36.253Z,3.60
2022-09-09T06:16:03.771Z,2.47
2022-09-09T06:18:31.069Z,3.05
2022-09-09T06:21:05.559Z,3.33
2022-09-09T06:23:33.223Z,3.35
2022-09-09T06:26:07.865Z,3.15
2022-09-09T06:28:36.233Z,3.72
2022-09-09T06:31:05.324Z,3.08
2022-09-09T06:33:35.730Z,3.35
2022-09-09T06:36:04.858Z,3.42
2022-09-09T06:38:32.285Z,3.05
2022-09-09T06:41:01.145Z,3.40
2022-09-09T06:43:28.432Z,3.28
2022-09-09T06:46:05.260Z,3.60
2022-09-09T06:48:32.602Z,3.67
2022-09-09T06:51:03.118Z,3.75
2022-09-09T06:55:59.836Z,3.85
2022-09-09T06:58:27.118Z,4.47
2022-09-09T07:00:54.470Z,3.97
2022-09-09T07:03:21.742Z,3.92
2022-09-09T07:05:56.309Z,4.22
2022-09-09T07:08:23.881Z,3.50
2022-09-09T07:10:52.497Z,4.15
2022-09-09T07:13:21.257Z,4.10
2022-09-09T07:15:48.687Z,3.60
2022-09-09T07:18:18.999Z,4.13
2022-09-09T07:20:55.038Z,3.70
2022-09-09T07:23:22.471Z,4.25
2022-09-09T07:25:49.791Z,4.28
2022-09-09T07:28:19.570Z,4.15
2022-09-09T07:30:54.807Z,5.00
2022-09-09T07:33:22.223Z,3.55
2022-09-09T07:35:49.631Z,3.20
2022-09-09T07:38:17.208Z,2.85
2022-09-09T07:40:44.834Z,2.92
2022-09-09T07:43:16.713Z,2.30
2022-09-09T07:45:44.716Z,2.70
2022-09-09T07:48:12.108Z,2.22
2022-09-09T07:50:40.593Z,1.70
2022-09-09T07:53:08.194Z,2.00
2022-09-09T07:55:35.522Z,2.15
2022-09-09T07:58:03.079Z,1.95
2022-09-09T08:00:34.327Z,1.98
2022-09-09T08:03:03.310Z,1.95
2022-09-09T08:05:30.779Z,1.52
2022-09-09T08:07:58.332Z,1.55
2022-09-09T08:10:25.809Z,1.67
2022-09-09T08:13:14.633Z,1.50
2022-09-09T08:15:42.353Z,1.58
2022-09-09T08:18:10.064Z,1.63
2022-09-09T08:20:38.602Z,1.15
2022-09-09T08:23:06.093Z,2.13
2022-09-09T08:25:33.814Z,1.40
2022-09-09T08:28:01.099Z,1.40
2022-09-09T08:30:28.556Z,1.55
2022-09-09T08:32:55.914Z,1.27
2022-09-09T08:35:23.379Z,1.13
2022-09-09T08:37:51.613Z,1.45
2022-09-09T08:40:23.653Z,1.77
2022-09-09T08:42:52.843Z,1.95
2022-09-09T08:45:33.495Z,1.30
2022-09-09T08:48:19.727Z,1.52
2022-09-09T08:50:49.508Z,1.30
2022-09-09T08:53:39.854Z,1.05
2022-09-09T08:56:13.155Z,1.15
2022-09-09T08:58:58.670Z,1.40
2022-09-09T09:01:46.061Z,1.20
2022-09-09T09:04:32.421Z,1.25
2022-09-09T09:07:18.656Z,1.10
2022-09-09T09:10:37.537Z,1.27
2022-09-09T09:13:02.708Z,1.05
2022-09-09T09:15:38.337Z,0.95
2022-09-09T09:18:06.663Z,1.10
2022-09-09T09:20:48.731Z,1.30
2022-09-09T09:23:21.169Z,1.40
2022-09-09T09:25:49.730Z,1.23
2022-09-09T09:28:24.131Z,1.60
2022-09-09T09:30:54.709Z,2.13
2022-09-09T09:33:25.311Z,1.13
2022-09-09T09:35:52.655Z,1.17
2022-09-09T09:41:08.557Z,1.70
2022-09-09T09:43:37.409Z,1.65
2022-09-09T09:46:19.899Z,1.38
2022-09-09T09:48:58.078Z,1.40
2022-09-09T09:51:26.343Z,1.17
2022-09-09T09:53:54.940Z,1.35
2022-09-09T09:56:33.627Z,2.30
2022-09-09T09:59:03.726Z,1.98
2022-09-09T10:01:37.313Z,1.40
2022-09-09T10:04:17.324Z,1.15
2022-09-09T10:06:44.721Z,1.55
2022-09-09T10:09:28.529Z,1.92
2022-09-09T10:12:15.248Z,1.40
2022-09-09T10:14:45.645Z,1.58
2022-09-09T10:17:12.992Z,1.65
2022-09-09T10:19:45.185Z,3.25
2022-09-09T10:22:21.675Z,2.92
2022-09-09T10:24:49.978Z,3.65
2022-09-09T10:27:27.108Z,2.00
2022-09-09T10:30:13.803Z,1.85
2022-09-09T10:32:41.083Z,1.80
2022-09-09T10:35:14.716Z,1.95
2022-09-09T10:37:54.217Z,2.00
2022-09-09T10:40:27.370Z,1.80
2022-09-09T10:43:13.742Z,2.67
2022-09-09T10:46:01.328Z,2.17
2022-09-09T10:48:32.345Z,1.88
2022-09-09T10:51:16.819Z,1.92
2022-09-09T10:53:49.915Z,1.83
2022-09-09T10:56:18.646Z,2.08
2022-09-09T10:58:52.398Z,1.60
2022-09-09T11:01:25.613Z,1.88
2022-09-09T11:04:19.254Z,1.60
2022-09-09T11:06:48.975Z,2.15
2022-09-09T11:09:18.638Z,1.90
2022-09-09T11:11:53.117Z,2.00
2022-09-09T11:14:23.342Z,1.90
2022-09-09T11:17:02.112Z,1.55
2022-09-09T11:19:36.207Z,1.70
2022-09-09T11:22:24.365Z,1.50
2022-09-09T11:24:55.832Z,1.95
2022-09-09T11:27:28.823Z,1.40
2022-09-09T11:30:02.183Z,1.10
2022-09-09T11:32:48.931Z,1.08
2022-09-09T11:35:36.804Z,1.38
2022-09-09T11:38:13.681Z,1.00
2022-09-09T11:40:41.483Z,1.17
2022-09-09T11:43:13.417Z,1.13
2022-09-09T11:45:44.673Z,1.20
2022-09-09T11:48:27.247Z,1.20
2022-09-09T11:51:06.255Z,1.10
2022-09-09T11:53:34.063Z,1.00
2022-09-09T11:56:05.858Z,0.93
2022-09-09T11:58:40.049Z,1.10
2022-09-09T12:01:17.840Z,1.02
2022-09-09T12:03:48.071Z,1.20
2022-09-09T12:06:15.841Z,1.17
2022-09-09T12:08:45.989Z,0.88
2022-09-09T12:11:13.539Z,1.25
2022-09-09T12:13:42.973Z,1.05
2022-09-09T12:16:30.074Z,1.10
2022-09-09T12:19:05.508Z,1.02
2022-09-09T12:21:40.144Z,1.10
2022-09-09T12:24:15.113Z,1.00
2022-09-09T12:26:59.060Z,0.80
2022-09-09T12:29:40.232Z,1.05
2022-09-09T12:32:13.294Z,0.80
2022-09-09T12:34:45.676Z,0.93
2022-09-09T12:37:14.098Z,0.80
2022-09-09T12:39:46.793Z,0.60
2022-09-09T12:42:21.635Z,1.20
2022-09-09T12:47:16.459Z,1.40
2022-09-09T12:49:44.272Z,0.80
2022-09-09T12:52:26.268Z,0.60
2022-09-09T12:54:54.845Z,1.25
2022-09-09T12:57:26.184Z,0.80
2022-09-09T12:59:54.622Z,0.68
2022-09-09T13:02:31.429Z,1.38
2022-09-09T13:05:08.110Z,0.90
2022-09-09T13:07:35.563Z,1.13
2022-09-09T13:10:03.177Z,0.80
2022-09-09T13:12:30.631Z,1.10
2022-09-09T13:14:58.600Z,1.08
2022-09-09T13:17:27.023Z,0.85
2022-09-09T13:19:54.912Z,1.05
2022-09-09T13:22:24.105Z,1.00
2022-09-09T13:25:00.744Z,1.00
2022-09-09T13:27:42.246Z,0.85
2022-09-09T13:30:27.118Z,0.80
2022-09-09T13:33:06.700Z,0.95
2022-09-09T13:35:34.635Z,0.90
2022-09-09T13:38:10.070Z,0.88
2022-09-09T13:40:37.870Z,0.70
2022-09-09T13:43:06.547Z,0.82
2022-09-09T13:45:35.966Z,0.60
2022-09-09T13:48:10.470Z,0.80
2022-09-09T13:50:37.995Z,0.90
2022-09-09T13:53:05.324Z,0.80
2022-09-09T13:55:32.889Z,0.68
2022-09-09T13:58:04.379Z,0.70
2022-09-09T14:00:32.892Z,1.15
2022-09-09T14:03:02.694Z,1.05
2022-09-09T14:05:31.988Z,0.70
2022-09-09T14:07:59.538Z,1.20
2022-09-09T14:10:27.010Z,1.05
2022-09-09T14:12:54.280Z,1.45
2022-09-09T14:15:22.977Z,1.42
2022-09-09T14:17:50.267Z,1.48
2022-09-09T14:20:18.790Z,2.33
2022-09-09T14:22:46.196Z,1.50
2022-09-09T14:25:14.787Z,0.98
2022-09-09T14:27:43.398Z,1.00
2022-09-09T14:30:11.229Z,1.20
2022-09-09T14:32:38.542Z,1.00
2022-09-09T14:35:08.401Z,1.10
2022-09-09T14:37:35.902Z,1.20
2022-09-09T14:40:03.395Z,0.90
2022-09-09T14:42:31.331Z,0.80
2022-09-09T14:44:58.821Z,0.90
2022-09-09T14:47:27.303Z,1.17
2022-09-09T14:49:54.844Z,0.90
2022-09-09T14:52:22.375Z,0.70
2022-09-09T14:54:50.691Z,0.90
2022-09-09T14:57:17.930Z,1.10
2022-09-09T14:59:45.188Z,1.00
2022-09-09T15:02:15.385Z,1.35
2022-09-09T15:04:42.705Z,1.00
2022-09-09T15:07:10.141Z,1.00
2022-09-09T15:09:38.424Z,0.90
2022-09-09T15:12:05.846Z,0.90
2022-09-09T15:14:33.827Z,1.35
2022-09-09T15:17:02.265Z,0.70
2022-09-09T15:19:29.561Z,0.82
2022-09-09T15:21:57.054Z,0.65
2022-09-09T15:24:24.272Z,0.82
2022-09-09T15:26:51.539Z,0.57
2022-09-09T15:29:20.018Z,0.60
2022-09-09T15:31:47.888Z,0.82
2022-09-09T15:34:15.217Z,1.17
2022-09-09T15:36:43.899Z,0.82
2022-09-09T15:39:16.864Z,1.20
2022-09-09T15:41:44.663Z,0.63
2022-09-09T15:44:15.645Z,0.60
2022-09-09T15:46:45.740Z,1.10
2022-09-09T15:49:14.258Z,0.65
2022-09-09T15:51:44.569Z,0.80
2022-09-09T15:54:17.958Z,1.00
2022-09-09T15:56:46.615Z,0.73
2022-09-09T15:59:15.854Z,0.50
2022-09-09T16:01:45.224Z,0.85
2022-09-09T16:04:13.141Z,0.80
2022-09-09T16:06:40.625Z,0.77
2022-09-09T16:09:08.528Z,0.60
2022-09-09T16:11:37.075Z,0.73
2022-09-09T16:14:04.957Z,0.68
2022-09-09T16:16:32.760Z,0.90
2022-09-09T16:19:01.535Z,0.80
2022-09-09T16:21:33.803Z,0.98
2022-09-09T16:24:01.862Z,0.80
2022-09-09T16:26:29.534Z,0.70
2022-09-09T16:28:57.069Z,0.70
2022-09-09T16:31:25.415Z,0.80
2022-09-09T16:33:53.310Z,0.60
2022-09-09T16:36:24.921Z,0.80
2022-09-09T16:38:59.804Z,0.98
2022-09-09T16:43:58.021Z,1.23
2022-09-09T16:46:25.651Z,0.80
2022-09-09T16:48:53.947Z,0.68
2022-09-09T16:51:25.715Z,0.80
2022-09-09T16:53:53.433Z,0.73
2022-09-09T16:56:22.675Z,0.50
2022-09-09T16:58:57.224Z,0.70
2022-09-09T17:01:28.430Z,1.00
2022-09-09T17:04:00.805Z,0.65
2022-09-09T17:06:28.724Z,0.95
2022-09-09T17:09:00.145Z,0.90
2022-09-09T17:11:27.708Z,0.85
2022-09-09T17:13:55.691Z,0.90
2022-09-09T17:16:23.942Z,0.65
2022-09-09T17:18:51.984Z,0.73
2022-09-09T17:21:20.559Z,0.75
2022-09-09T17:23:48.270Z,1.40
2022-09-09T17:26:17.364Z,1.45
2022-09-09T17:28:44.788Z,0.80
2022-09-09T17:31:13.463Z,1.60
2022-09-09T17:33:41.395Z,0.90
2022-09-09T17:36:11.022Z,0.70
2022-09-09T17:38:38.818Z,0.90
2022-09-09T17:41:07.483Z,0.98
2022-09-09T17:43:35.145Z,0.80
2022-09-09T17:46:08.809Z,0.80
2022-09-09T17:48:37.999Z,1.08
2022-09-09T17:51:06.835Z,0.90
2022-09-09T17:53:38.896Z,0.93
2022-09-09T17:56:07.086Z,0.93
2022-09-09T17:58:34.439Z,0.63
2022-09-09T18:01:06.233Z,0.90
2022-09-09T18:03:40.465Z,1.00
2022-09-09T18:06:09.403Z,0.80
2022-09-09T18:08:37.420Z,1.10
2022-09-09T18:11:05.234Z,0.90
2022-09-09T18:13:32.786Z,1.15
2022-09-09T18:16:00.435Z,0.90
2022-09-09T18:18:28.272Z,1.48
2022-09-09T18:21:06.747Z,1.00
2022-09-09T18:23:37.745Z,0.95
2022-09-09T18:26:12.273Z,0.95
2022-09-09T18:28:40.326Z,0.95
2022-09-09T18:31:12.166Z,0.90
2022-09-09T18:33:41.223Z,1.15
2022-09-09T18:36:09.698Z,1.40
2022-09-09T18:38:38.634Z,0.98
2022-09-09T18:41:22.597Z,1.02
2022-09-09T18:43:50.926Z,1.00
2022-09-09T18:46:19.194Z,1.10
2022-09-09T18:48:48.424Z,0.85
2022-09-09T18:51:16.581Z,1.25
2022-09-09T18:53:44.526Z,0.98
2022-09-09T18:56:13.473Z,1.10
2022-09-09T18:58:41.192Z,0.90
2022-09-09T19:01:13.140Z,1.13
2022-09-09T19:03:41.821Z,1.23
2022-09-09T19:06:13.190Z,1.42
2022-09-09T19:08:41.321Z,1.27
2022-09-09T19:11:09.676Z,1.13
2022-09-09T19:13:37.385Z,1.95
2022-09-09T19:16:20.318Z,1.10
2022-09-09T19:18:49.144Z,1.02
2022-09-09T19:21:18.347Z,1.52
2022-09-09T19:23:49.186Z,1.17
2022-09-09T19:26:17.213Z,1.20
2022-09-09T19:28:50.245Z,1.10
2022-09-09T19:31:19.608Z,1.45
2022-09-09T19:33:48.507Z,1.13
2022-09-09T19:36:18.408Z,1.30
2022-09-09T19:38:46.628Z,1.25
2022-09-09T19:41:15.728Z,1.00
2022-09-09T19:43:43.191Z,1.10
2022-09-09T19:46:15.784Z,1.35
2022-09-09T19:48:44.166Z,1.10
2022-09-09T19:51:19.002Z,1.38
2022-09-09T19:53:49.111Z,1.50
2022-09-09T19:56:17.546Z,1.52
2022-09-09T19:58:46.439Z,1.88
2022-09-09T20:01:21.594Z,1.63
2022-09-09T20:06:20.523Z,1.52
2022-09-09T20:08:48.941Z,1.65
2022-09-09T20:11:17.002Z,1.30
2022-09-09T20:13:44.908Z,1.35
2022-09-09T20:16:23.331Z,1.30
2022-09-09T20:18:52.852Z,1.50
2022-09-09T20:21:22.061Z,1.50
2022-09-09T20:23:50.619Z,1.70
2022-09-09T20:26:20.278Z,1.65
2022-09-09T20:28:50.593Z,1.40
2022-09-09T20:31:19.943Z,1.55
2022-09-09T20:33:47.641Z,2.00
2022-09-09T20:36:16.033Z,1.80
2022-09-09T20:38:45.179Z,1.63
2022-09-09T20:41:14.731Z,1.67
2022-09-09T20:43:48.119Z,1.50
2022-09-09T20:46:18.169Z,1.80
2022-09-09T20:48:46.674Z,1.60
2022-09-09T20:51:15.416Z,1.50
2022-09-09T20:53:42.745Z,1.52
2022-09-09T20:56:10.181Z,1.50
2022-09-09T20:58:37.797Z,1.70
2022-09-09T21:01:06.226Z,1.95
2022-09-09T21:03:37.171Z,1.60
2022-09-09T21:06:05.516Z,1.48
2022-09-09T21:08:32.758Z,1.08
2022-09-09T21:11:02.810Z,1.77
2022-09-09T21:13:30.892Z,1.52
2022-09-09T21:15:59.099Z,1.60
2022-09-09T21:18:41.563Z,1.50
2022-09-09T21:21:09.493Z,1.30
2022-09-09T21:23:36.757Z,1.35
2022-09-09T21:26:04.707Z,1.60
2022-09-09T21:28:32.073Z,1.65
2022-09-09T21:30:59.879Z,1.38
2022-09-09T21:33:31.045Z,1.63
2022-09-09T21:36:03.260Z,1.48
2022-09-09T21:38:31.309Z,1.65
2022-09-09T21:40:58.633Z,1.63
2022-09-09T21:43:25.867Z,1.60
2022-09-09T21:45:53.978Z,1.60
2022-09-09T21:48:21.338Z,1.73
2022-09-09T21:50:48.733Z,1.60
2022-09-09T21:53:18.414Z,1.73
2022-09-09T21:55:46.720Z,1.60
2022-09-09T21:58:15.107Z,1.40
2022-09-09T22:00:42.952Z,1.33
2022-09-09T22:03:10.521Z,1.15
2022-09-09T22:05:41.158Z,0.95
2022-09-09T22:08:08.941Z,1.27
2022-09-09T22:10:37.527Z,1.00
2022-09-09T22:13:05.336Z,1.23
2022-09-09T22:15:32.935Z,1.20
2022-09-09T22:18:03.823Z,1.38
2022-09-09T22:20:33.430Z,1.83
2022-09-09T22:23:01.895Z,1.50
2022-09-09T22:25:32.900Z,1.40
2022-09-09T22:28:00.301Z,1.55
2022-09-09T22:30:28.493Z,1.60
2022-09-09T22:32:56.696Z,1.63
2022-09-09T22:35:23.923Z,1.52
2022-09-09T22:37:51.428Z,1.83
2022-09-09T22:40:18.648Z,1.77
2022-09-09T22:42:49.410Z,1.67
2022-09-09T22:45:19.988Z,1.48
2022-09-09T22:47:47.834Z,1.80
2022-09-09T22:50:15.372Z,1.58
2022-09-09T22:52:42.656Z,1.75
2022-09-09T22:55:09.976Z,1.70
2022-09-09T22:57:37.581Z,1.30
2022-09-09T23:00:09.101Z,1.27
2022-09-09T23:02:40.927Z,1.20
2022-09-09T23:05:08.901Z,1.98
2022-09-09T23:07:37.135Z,1.80
2022-09-09T23:10:05.652Z,1.58
2022-09-09T23:12:33.097Z,1.60
2022-09-09T23:15:00.447Z,1.45
2022-09-09T23:17:27.892Z,1.80
2022-09-09T23:19:56.767Z,2.45
2022-09-09T23:22:24.544Z,1.63
2022-09-09T23:24:53.862Z,1.60
2022-09-09T23:27:24.294Z,1.50
2022-09-09T23:29:54.273Z,1.83
2022-09-09T23:32:22.071Z,1.98
2022-09-09T23:34:49.315Z,1.60
2022-09-09T23:37:17.314Z,1.50
2022-09-09T23:39:44.637Z,1.65
2022-09-09T23:42:12.380Z,1.75
2022-09-09T23:44:39.997Z,2.08
2022-09-09T23:47:09.480Z,1.60
2022-09-09T23:49:39.625Z,1.55
2022-09-09T23:52:08.511Z,1.27
2022-09-09T23:54:36.205Z,1.13
2022-09-09T23:57:03.817Z,1.15
2022-09-09T23:59:32.081Z,1.95
